Current Weather

North Las Vegas

Las Vegas, Nevada (KVGT)

Report from: Thursday, July 18, 2024 6:53 AM PDT
Current time: Thursday, July 18, 2024 7:57 AM PDT

Nearby weather – Weather history – Daily summaries
Weather forecast

Temperature33.9°C (93.0°F)
Heat index32.8°C (91.1°F)
Dew point12.8°C (55.0°F)
Winds Calm
Visibility10 mi. (16.1 km)
Clouds Sky clear
Altimeter29.95 in.Hg (1014 mB)
Relative humidity28 %
Density altitude2,382 ft. (726 m)
Sea-level pressure101.3 kPa (1013 mB, 29.90 in.Hg)
Remarks Automated weather observing station with precipitation discriminator
Flight conditions Visual Meteorological Conditions
Raw dataKVGT 181353Z 00000KT 10SM CLR 34/13 A2995 RMK AO2 SLP125 T03390128
An error has occurred. This application may no longer respond until reloaded. Reload 🗙